Time;durP1;ratioP1;P1;durP2;ratioP2;P2;SDS_P1;SDS_P2;PMS_P1;PMS_P2;Temp;Humidity;BMP_temperature;BMP_pressure;BME280_temperature;BME280_humidity;BME280_pressure;Samples;Min_cycle;Max_cycle;Signal;HPM_P1;HPM_P2
2023/08/01 00:00:41;;;;;;;16.38;5.78;;;;;;;;;;4964747;28;20494;-91
2023/08/01 00:03:07;;;;;;;18.13;5.50;;;;;;;;;;4951614;28;20046;-90
2023/08/01 00:05:33;;;;;;;21.35;6.32;;;;;;;;;;4961225;28;20058;-94
2023/08/01 00:08:02;;;;;;;17.45;5.93;;;;;;;;;;4948408;28;20058;-88
2023/08/01 00:10:28;;;;;;;13.30;5.68;;;;;;;;;;4946378;28;20077;-92
2023/08/01 00:12:54;;;;;;;19.92;6.53;;;;;;;;;;4967682;28;20081;-92
2023/08/01 00:15:20;;;;;;;16.85;5.80;;;;;;;;;;4966295;28;20045;-91
2023/08/01 00:17:46;;;;;;;14.77;6.22;;;;;;;;;;4973730;28;20061;-90
2023/08/01 00:20:12;;;;;;;16.88;6.25;;;;;;;;;;4953092;28;20149;-92
2023/08/01 00:22:38;;;;;;;16.73;6.72;;;;;;;;;;4970429;28;20112;-91
2023/08/01 00:25:05;;;;;;;20.67;7.65;;;;;;;;;;4953268;28;20502;-91
2023/08/01 00:27:32;;;;;;;19.70;7.50;;;;;;;;;;4951775;28;20054;-93
2023/08/01 00:29:58;;;;;;;21.98;8.02;;;;;;;;;;4954400;28;20072;-90
2023/08/01 00:32:24;;;;;;;17.80;8.20;;;;;;;;;;4969864;28;20566;-92
2023/08/01 00:34:51;;;;;;;17.63;8.75;;;;;;;;;;4968188;28;20137;-90
2023/08/01 00:37:17;;;;;;;14.67;8.07;;;;;;;;;;4953414;28;20053;-91
2023/08/01 00:39:47;;;;;;;18.42;8.98;;;;;;;;;;4969157;28;20305;-90
2023/08/01 00:42:13;;;;;;;19.60;10.18;;;;;;;;;;4954436;28;20072;-92
2023/08/01 00:44:39;;;;;;;28.10;11.48;;;;;;;;;;4952642;28;20171;-92
2023/08/01 00:47:05;;;;;;;23.20;9.48;;;;;;;;;;4952622;28;20054;-92
2023/08/01 00:49:31;;;;;;;10.85;4.80;;;;;;;;;;4969804;28;20101;-92
2023/08/01 00:52:00;;;;;;;9.27;4.38;;;;;;;;;;4968939;28;20046;-91
2023/08/01 00:54:27;;;;;;;8.38;4.03;;;;;;;;;;4965198;28;20050;-92
2023/08/01 00:56:53;;;;;;;8.88;3.67;;;;;;;;;;4949107;28;20054;-91
2023/08/01 00:59:19;;;;;;;10.75;4.47;;;;;;;;;;4970937;28;20081;-91
2023/08/01 01:01:48;;;;;;;9.43;3.72;;;;;;;;;;4969821;28;20407;-89
2023/08/01 01:04:15;;;;;;;10.25;3.92;;;;;;;;;;4970814;28;20082;-90
2023/08/01 01:06:53;;;;;;;13.73;4.60;;;;;;;;;;4968606;28;20434;-91
2023/08/01 01:09:20;;;;;;;12.77;4.75;;;;;;;;;;4969041;28;20046;-91
2023/08/01 01:11:46;;;;;;;9.75;4.50;;;;;;;;;;4968212;28;20042;-91
2023/08/01 01:14:13;;;;;;;9.98;4.10;;;;;;;;;;4970215;28;20133;-91
2023/08/01 01:16:39;;;;;;;11.32;4.13;;;;;;;;;;4967227;28;20749;-93
2023/08/01 01:19:07;;;;;;;11.05;4.70;;;;;;;;;;4969406;28;20575;-91
2023/08/01 01:21:34;;;;;;;8.93;4.57;;;;;;;;;;4971087;28;20193;-90
2023/08/01 01:24:00;;;;;;;11.32;5.20;;;;;;;;;;4973838;28;20058;-91
2023/08/01 01:26:27;;;;;;;12.90;5.20;;;;;;;;;;4988903;28;20050;-90
2023/08/01 01:28:54;;;;;;;12.55;4.88;;;;;;;;;;4969773;28;20050;-92
2023/08/01 01:31:20;;;;;;;11.00;4.70;;;;;;;;;;4968626;28;20038;-92
2023/08/01 01:33:46;;;;;;;9.95;4.90;;;;;;;;;;4952523;28;20278;-92
2023/08/01 01:36:12;;;;;;;9.43;4.57;;;;;;;;;;4953611;28;20042;-91
2023/08/01 01:38:38;;;;;;;10.15;4.85;;;;;;;;;;4957618;28;20060;-89
2023/08/01 01:41:04;;;;;;;10.05;4.65;;;;;;;;;;4953060;28;20188;-93
2023/08/01 01:43:30;;;;;;;11.52;4.63;;;;;;;;;;4970069;28;20600;-91
2023/08/01 01:45:57;;;;;;;11.60;4.60;;;;;;;;;;4968024;28;20547;-90
2023/08/01 01:48:25;;;;;;;11.77;4.57;;;;;;;;;;4951601;28;20049;-92
2023/08/01 01:50:51;;;;;;;9.98;4.43;;;;;;;;;;4950591;28;20042;-91
2023/08/01 01:53:18;;;;;;;11.77;4.32;;;;;;;;;;4948199;28;20050;-91
2023/08/01 01:55:44;;;;;;;11.32;4.70;;;;;;;;;;4967299;28;20046;-92
2023/08/01 01:58:12;;;;;;;10.90;4.50;;;;;;;;;;4964184;28;20049;-92
2023/08/01 02:00:39;;;;;;;11.05;4.53;;;;;;;;;;4951373;28;20088;-92
2023/08/01 02:03:07;;;;;;;12.80;4.80;;;;;;;;;;4969968;28;20085;-92
2023/08/01 02:05:33;;;;;;;11.65;4.55;;;;;;;;;;4953221;28;20058;-91
2023/08/01 02:07:59;;;;;;;14.80;5.10;;;;;;;;;;4952714;28;20042;-92
2023/08/01 02:10:25;;;;;;;12.77;5.18;;;;;;;;;;4953811;28;20054;-92
2023/08/01 02:12:51;;;;;;;17.40;5.70;;;;;;;;;;4952960;28;20089;-92
2023/08/01 02:15:17;;;;;;;12.98;4.88;;;;;;;;;;4953232;28;20046;-92
2023/08/01 02:17:43;;;;;;;9.70;4.70;;;;;;;;;;4973385;28;20136;-92
2023/08/01 02:20:09;;;;;;;10.70;5.00;;;;;;;;;;4954961;28;20077;-92
2023/08/01 02:22:38;;;;;;;10.93;4.80;;;;;;;;;;4954125;28;20061;-91
2023/08/01 02:25:04;;;;;;;14.13;5.30;;;;;;;;;;4985457;28;20081;-90
2023/08/01 02:27:42;;;;;;;13.77;4.85;;;;;;;;;;4951269;28;20046;-91
2023/08/01 02:30:09;;;;;;;16.92;5.65;;;;;;;;;;4953464;28;20351;-91
2023/08/01 02:32:35;;;;;;;14.85;5.07;;;;;;;;;;4967885;28;20050;-91
2023/08/01 02:35:04;;;;;;;11.63;5.10;;;;;;;;;;4969932;28;20045;-92
2023/08/01 02:37:30;;;;;;;14.15;4.88;;;;;;;;;;4950503;28;20133;-92
2023/08/01 02:39:59;;;;;;;15.63;5.70;;;;;;;;;;4950096;28;20128;-92
2023/08/01 02:42:25;;;;;;;11.20;5.60;;;;;;;;;;4949231;28;20548;-92
2023/08/01 02:44:51;;;;;;;18.05;5.28;;;;;;;;;;4951837;28;20108;-92
2023/08/01 02:47:17;;;;;;;13.32;5.40;;;;;;;;;;4950646;28;20138;-91
2023/08/01 02:49:43;;;;;;;14.63;5.88;;;;;;;;;;4953828;28;20149;-92
2023/08/01 02:52:10;;;;;;;14.48;5.45;;;;;;;;;;4951033;28;20050;-92
2023/08/01 02:54:36;;;;;;;13.45;5.95;;;;;;;;;;4952393;28;20387;-91
2023/08/01 02:57:02;;;;;;;16.60;6.05;;;;;;;;;;4953426;28;20034;-92
2023/08/01 02:59:28;;;;;;;17.63;6.60;;;;;;;;;;4967563;28;20049;-92
2023/08/01 03:01:57;;;;;;;19.05;7.80;;;;;;;;;;4948939;28;20042;-91
2023/08/01 03:04:23;;;;;;;19.55;6.78;;;;;;;;;;4951211;28;20082;-92
2023/08/01 03:06:49;;;;;;;17.75;7.45;;;;;;;;;;4955333;28;20455;-92
2023/08/01 03:09:15;;;;;;;21.38;8.27;;;;;;;;;;4967890;28;20090;-92
2023/08/01 03:11:44;;;;;;;20.75;7.95;;;;;;;;;;4950257;28;20038;-92
2023/08/01 03:14:13;;;;;;;21.05;7.57;;;;;;;;;;4973535;28;20060;-92
2023/08/01 03:16:39;;;;;;;20.25;7.97;;;;;;;;;;4951914;28;20055;-92
2023/08/01 03:19:05;;;;;;;25.42;8.73;;;;;;;;;;4969191;28;20387;-92
2023/08/01 03:21:32;;;;;;;21.55;8.38;;;;;;;;;;4968797;28;20054;-91
2023/08/01 03:23:58;;;;;;;23.17;8.55;;;;;;;;;;4968822;28;20430;-91
2023/08/01 03:26:24;;;;;;;23.17;8.00;;;;;;;;;;4949394;28;20117;-92
2023/08/01 03:28:51;;;;;;;22.88;8.30;;;;;;;;;;4948266;28;20418;-92
2023/08/01 03:31:17;;;;;;;20.83;8.13;;;;;;;;;;4949919;28;20475;-92
2023/08/01 03:33:43;;;;;;;21.52;8.23;;;;;;;;;;4950535;28;20105;-91
2023/08/01 03:36:18;;;;;;;21.42;8.48;;;;;;;;;;4967229;28;20042;-91
2023/08/01 03:38:44;;;;;;;19.08;7.57;;;;;;;;;;4949490;28;20054;-92
2023/08/01 03:41:10;;;;;;;16.50;7.15;;;;;;;;;;4950421;28;20341;-92
2023/08/01 03:43:36;;;;;;;17.75;6.72;;;;;;;;;;4949726;28;20121;-91
2023/08/01 03:46:04;;;;;;;12.73;5.53;;;;;;;;;;4963382;28;20454;-92
2023/08/01 03:48:33;;;;;;;17.70;6.57;;;;;;;;;;4949660;28;20430;-90
2023/08/01 03:51:03;;;;;;;14.02;6.13;;;;;;;;;;4948523;28;20060;-92
2023/08/01 03:53:30;;;;;;;13.38;5.97;;;;;;;;;;4964527;28;20054;-93
2023/08/01 03:55:58;;;;;;;16.48;6.00;;;;;;;;;;4968193;28;20034;-93
2023/08/01 03:58:24;;;;;;;14.88;5.78;;;;;;;;;;4949644;28;20038;-93
2023/08/01 04:00:50;;;;;;;16.65;5.65;;;;;;;;;;4951073;28;20061;-91
2023/08/01 04:03:16;;;;;;;12.52;5.60;;;;;;;;;;4951082;28;20447;-91
2023/08/01 04:05:45;;;;;;;13.15;5.47;;;;;;;;;;4951216;28;20494;-92
2023/08/01 04:08:11;;;;;;;13.25;4.90;;;;;;;;;;4946519;28;20069;-92
2023/08/01 04:10:37;;;;;;;11.50;4.80;;;;;;;;;;4965198;28;20046;-92
2023/08/01 04:13:03;;;;;;;12.85;5.07;;;;;;;;;;4946926;28;20057;-92
2023/08/01 04:15:31;;;;;;;11.23;4.00;;;;;;;;;;4947249;28;20046;-91
2023/08/01 04:17:57;;;;;;;11.95;4.50;;;;;;;;;;4950930;28;20428;-91
2023/08/01 04:20:23;;;;;;;11.10;4.07;;;;;;;;;;4964629;28;20042;-92
2023/08/01 04:22:51;;;;;;;16.92;3.90;;;;;;;;;;4950001;28;20340;-92
2023/08/01 04:25:18;;;;;;;12.77;4.00;;;;;;;;;;4947221;28;20125;-92
2023/08/01 04:27:44;;;;;;;15.10;3.90;;;;;;;;;;4964787;28;20369;-91
2023/08/01 04:30:10;;;;;;;16.15;3.88;;;;;;;;;;4949103;28;20050;-91
2023/08/01 04:32:36;;;;;;;13.65;3.80;;;;;;;;;;4969135;28;20046;-91
2023/08/01 04:35:03;;;;;;;10.57;3.45;;;;;;;;;;4952960;28;20054;-91
2023/08/01 04:37:29;;;;;;;11.10;3.53;;;;;;;;;;4952109;28;20124;-92
2023/08/01 04:40:03;;;;;;;12.10;3.35;;;;;;;;;;4951213;28;20046;-91
2023/08/01 04:42:30;;;;;;;11.48;3.05;;;;;;;;;;4948740;28;20055;-91
2023/08/01 04:44:56;;;;;;;7.97;3.00;;;;;;;;;;4969362;28;20074;-92
2023/08/01 04:47:22;;;;;;;8.43;2.60;;;;;;;;;;4967676;28;20491;-91
2023/08/01 04:49:51;;;;;;;10.18;3.00;;;;;;;;;;4967346;28;20034;-91
2023/08/01 04:52:17;;;;;;;10.55;2.80;;;;;;;;;;4978115;28;20073;-91
2023/08/01 04:54:43;;;;;;;10.90;2.97;;;;;;;;;;4964707;28;20042;-92
2023/08/01 04:57:09;;;;;;;10.38;2.90;;;;;;;;;;4947555;28;20426;-90
2023/08/01 04:59:35;;;;;;;11.07;3.15;;;;;;;;;;4947549;28;20057;-90
2023/08/01 05:02:02;;;;;;;10.02;2.83;;;;;;;;;;4963176;28;20046;-90
2023/08/01 05:04:33;;;;;;;8.50;2.72;;;;;;;;;;4976084;28;20090;-90
2023/08/01 05:07:08;;;;;;;6.55;2.60;;;;;;;;;;4965126;28;20125;-91
2023/08/01 05:09:34;;;;;;;6.85;2.28;;;;;;;;;;4968090;28;20050;-92
2023/08/01 05:12:00;;;;;;;8.80;2.30;;;;;;;;;;4969259;28;20038;-91
2023/08/01 05:14:29;;;;;;;8.63;2.30;;;;;;;;;;4968940;28;20050;-91
2023/08/01 05:16:55;;;;;;;8.98;2.63;;;;;;;;;;4953490;28;20069;-90
2023/08/01 05:19:25;;;;;;;7.05;2.53;;;;;;;;;;4972127;28;20049;-89
2023/08/01 05:21:51;;;;;;;7.47;2.13;;;;;;;;;;4984054;28;20096;-91
2023/08/01 05:24:17;;;;;;;4.53;2.05;;;;;;;;;;4952400;28;20046;-92
2023/08/01 05:26:43;;;;;;;5.47;2.13;;;;;;;;;;4952019;28;20743;-92
2023/08/01 05:29:09;;;;;;;5.63;2.08;;;;;;;;;;4953611;28;20077;-92
2023/08/01 05:31:35;;;;;;;7.00;2.15;;;;;;;;;;4949446;28;20046;-89
2023/08/01 05:34:01;;;;;;;6.25;2.05;;;;;;;;;;4952292;28;20632;-92
2023/08/01 05:36:27;;;;;;;6.53;2.20;;;;;;;;;;4954349;28;20066;-89
2023/08/01 05:38:53;;;;;;;5.20;2.17;;;;;;;;;;4970151;28;20043;-89
2023/08/01 05:41:22;;;;;;;10.40;2.42;;;;;;;;;;4954469;28;20121;-88
2023/08/01 05:43:49;;;;;;;7.13;2.10;;;;;;;;;;4969259;28;20067;-90
2023/08/01 05:46:16;;;;;;;5.20;2.15;;;;;;;;;;4969078;28;20047;-89
2023/08/01 05:48:42;;;;;;;4.18;2.03;;;;;;;;;;4986019;28;20376;-86
2023/08/01 05:51:08;;;;;;;4.85;2.20;;;;;;;;;;4958549;28;20101;-89
2023/08/01 05:53:34;;;;;;;5.25;2.08;;;;;;;;;;4971660;28;20142;-89
2023/08/01 05:56:00;;;;;;;5.05;1.70;;;;;;;;;;4968238;28;20125;-89
2023/08/01 05:58:29;;;;;;;3.65;1.80;;;;;;;;;;4952198;28;20089;-88
2023/08/01 06:00:55;;;;;;;6.03;1.90;;;;;;;;;;4970360;28;20049;-88
2023/08/01 06:03:21;;;;;;;3.17;1.83;;;;;;;;;;4969243;28;20363;-86
2023/08/01 06:05:47;;;;;;;3.05;2.08;;;;;;;;;;4952899;28;20538;-86
2023/08/01 06:08:16;;;;;;;5.38;2.10;;;;;;;;;;4983832;28;20039;-85
2023/08/01 06:10:43;;;;;;;5.78;2.03;;;;;;;;;;4967982;28;20046;-86
2023/08/01 06:13:09;;;;;;;4.70;1.92;;;;;;;;;;4948501;28;20092;-88
2023/08/01 06:15:35;;;;;;;6.00;2.00;;;;;;;;;;4943641;28;20129;-88
2023/08/01 06:18:04;;;;;;;4.03;1.85;;;;;;;;;;4949130;28;20050;-87
2023/08/01 06:20:30;;;;;;;7.63;1.98;;;;;;;;;;4983145;28;20338;-88
2023/08/01 06:22:56;;;;;;;5.20;2.08;;;;;;;;;;4964465;28;20515;-87
2023/08/01 06:25:22;;;;;;;6.15;2.20;;;;;;;;;;4966812;28;20085;-88
2023/08/01 06:27:48;;;;;;;7.60;2.05;;;;;;;;;;4969122;28;20074;-88
2023/08/01 06:30:14;;;;;;;7.50;2.20;;;;;;;;;;4951480;28;20042;-87
2023/08/01 06:32:43;;;;;;;4.88;2.03;;;;;;;;;;4967698;28;20159;-89
2023/08/01 06:35:09;;;;;;;7.15;2.45;;;;;;;;;;4969494;28;20097;-88
2023/08/01 06:37:35;;;;;;;5.70;2.08;;;;;;;;;;4952875;28;20050;-87
2023/08/01 06:40:02;;;;;;;6.95;2.05;;;;;;;;;;4953714;28;20050;-87
2023/08/01 06:42:28;;;;;;;5.63;2.47;;;;;;;;;;4967742;28;20079;-88
2023/08/01 06:44:57;;;;;;;7.65;2.33;;;;;;;;;;4970023;28;20459;-86
2023/08/01 06:47:26;;;;;;;6.53;2.25;;;;;;;;;;4953114;28;20092;-87
2023/08/01 06:49:52;;;;;;;7.70;2.30;;;;;;;;;;4966252;28;20121;-86
2023/08/01 06:52:18;;;;;;;4.88;2.10;;;;;;;;;;4949270;28;20077;-87
2023/08/01 06:54:44;;;;;;;5.10;2.28;;;;;;;;;;4967450;28;20053;-88
2023/08/01 06:57:10;;;;;;;7.68;2.67;;;;;;;;;;4964623;28;20109;-86
2023/08/01 06:59:36;;;;;;;5.25;2.70;;;;;;;;;;4981198;28;20434;-88
2023/08/01 07:02:02;;;;;;;7.50;2.17;;;;;;;;;;4980636;28;20534;-86
2023/08/01 07:04:28;;;;;;;7.68;2.60;;;;;;;;;;4962929;28;20321;-86
2023/08/01 07:06:54;;;;;;;6.82;2.60;;;;;;;;;;4948267;28;20034;-87
2023/08/01 07:09:20;;;;;;;8.02;2.63;;;;;;;;;;4963849;28;20100;-87
2023/08/01 07:11:47;;;;;;;5.20;2.08;;;;;;;;;;4947092;28;20130;-88
2023/08/01 07:14:13;;;;;;;4.15;2.17;;;;;;;;;;4945803;28;20446;-88
2023/08/01 07:16:39;;;;;;;6.13;2.00;;;;;;;;;;4962803;28;20058;-88
2023/08/01 07:19:05;;;;;;;6.28;2.00;;;;;;;;;;4947374;28;20553;-88
2023/08/01 07:21:53;;;;;;;6.60;2.00;;;;;;;;;;4958285;28;20038;-88
2023/08/01 07:24:19;;;;;;;5.55;2.00;;;;;;;;;;4966529;28;20050;-88
2023/08/01 07:26:45;;;;;;;4.90;2.17;;;;;;;;;;4961632;28;20541;-87
2023/08/01 07:29:15;;;;;;;7.55;2.10;;;;;;;;;;4961550;28;20054;-87
2023/08/01 07:31:42;;;;;;;3.40;1.70;;;;;;;;;;4957865;28;20093;-87
2023/08/01 07:34:11;;;;;;;5.72;1.88;;;;;;;;;;4975046;28;20050;-87
2023/08/01 07:36:37;;;;;;;6.38;1.80;;;;;;;;;;4962326;28;20108;-87
2023/08/01 07:39:03;;;;;;;6.20;2.15;;;;;;;;;;4943051;28;20057;-86
2023/08/01 07:41:30;;;;;;;5.18;1.80;;;;;;;;;;4962512;28;20159;-87
2023/08/01 07:43:56;;;;;;;6.10;1.90;;;;;;;;;;4963646;28;20648;-86
2023/08/01 07:46:22;;;;;;;4.88;1.85;;;;;;;;;;4963690;28;20375;-87
2023/08/01 07:48:48;;;;;;;4.53;1.60;;;;;;;;;;4968694;28;20042;-87
2023/08/01 07:51:15;;;;;;;4.90;1.60;;;;;;;;;;4977693;28;20106;-86
2023/08/01 07:53:41;;;;;;;5.95;1.35;;;;;;;;;;4963154;28;20050;-85
2023/08/01 07:56:08;;;;;;;4.80;1.48;;;;;;;;;;4954039;28;20158;-87
2023/08/01 07:58:34;;;;;;;5.45;1.70;;;;;;;;;;4967487;28;20495;-86
2023/08/01 08:01:04;;;;;;;5.10;1.25;;;;;;;;;;4974152;28;20558;-87
2023/08/01 08:03:33;;;;;;;5.82;1.30;;;;;;;;;;4941608;28;20108;-87
2023/08/01 08:06:00;;;;;;;5.20;1.40;;;;;;;;;;4988435;28;20069;-87
2023/08/01 08:08:26;;;;;;;9.68;1.65;;;;;;;;;;4969033;28;20050;-87
2023/08/01 08:10:52;;;;;;;4.45;1.30;;;;;;;;;;4968870;28;20046;-87
2023/08/01 08:13:20;;;;;;;4.78;1.20;;;;;;;;;;4972465;28;20042;-86
2023/08/01 08:15:49;;;;;;;4.78;1.33;;;;;;;;;;4969167;28;20093;-87
2023/08/01 08:21:31;;;;;;;7.57;1.80;;;;;;;;;;4959683;28;20548;-86
2023/08/01 08:24:00;;;;;;;5.45;1.67;;;;;;;;;;4950060;28;20113;-88
2023/08/01 08:26:27;;;;;;;7.75;1.60;;;;;;;;;;4966615;28;20511;-87
2023/08/01 08:28:55;;;;;;;4.65;1.50;;;;;;;;;;4939675;28;20043;-86
2023/08/01 08:31:24;;;;;;;8.70;1.50;;;;;;;;;;4964270;28;20527;-86
2023/08/01 08:33:50;;;;;;;5.80;1.48;;;;;;;;;;4944545;28;20053;-88
2023/08/01 08:36:16;;;;;;;8.68;2.55;;;;;;;;;;4958908;28;20046;-87
2023/08/01 08:39:18;;;;;;;5.22;1.48;;;;;;;;;;4967044;28;20054;-88
2023/08/01 08:41:53;;;;;;;4.65;1.33;;;;;;;;;;4959562;28;20061;-86
2023/08/01 08:44:29;;;;;;;4.40;1.25;;;;;;;;;;4947953;28;20446;-86
2023/08/01 08:46:55;;;;;;;4.38;1.40;;;;;;;;;;4961843;28;20078;-86
2023/08/01 08:49:22;;;;;;;5.05;1.33;;;;;;;;;;4962602;28;20446;-86
2023/08/01 08:51:49;;;;;;;5.38;1.60;;;;;;;;;;4980213;28;20046;-88
2023/08/01 08:54:16;;;;;;;4.40;1.30;;;;;;;;;;4949505;28;20059;-86
2023/08/01 08:56:52;;;;;;;4.43;1.50;;;;;;;;;;4968487;28;20950;-86
2023/08/01 08:59:18;;;;;;;3.42;1.35;;;;;;;;;;4963404;28;20120;-87
2023/08/01 09:02:15;;;;;;;5.45;1.55;;;;;;;;;;4962581;28;20108;-85
2023/08/01 09:04:41;;;;;;;5.53;1.58;;;;;;;;;;4968710;28;20050;-87
2023/08/01 09:07:11;;;;;;;5.72;1.60;;;;;;;;;;4972586;28;20078;-86
2023/08/01 09:09:38;;;;;;;4.93;1.50;;;;;;;;;;4964491;28;20133;-86
2023/08/01 09:12:04;;;;;;;3.83;1.27;;;;;;;;;;4973278;28;20398;-86
2023/08/01 09:14:32;;;;;;;6.35;1.73;;;;;;;;;;4964872;28;20061;-86
2023/08/01 09:17:18;;;;;;;8.57;1.90;;;;;;;;;;4943924;28;20055;-85
2023/08/01 09:19:47;;;;;;;6.38;1.50;;;;;;;;;;4935184;28;20051;-86
2023/08/01 09:22:25;;;;;;;6.32;1.30;;;;;;;;;;4954010;28;20043;-90
2023/08/01 09:24:52;;;;;;;;;;;;;;;;;;4934082;28;20443;-85
2023/08/01 09:27:22;;;;;;;4.68;1.40;;;;;;;;;;4955456;28;19965;-86
2023/08/01 09:29:48;;;;;;;4.03;1.33;;;;;;;;;;4930455;28;20523;-85
2023/08/01 09:32:14;;;;;;;8.15;2.13;;;;;;;;;;4928666;28;20050;-86
2023/08/01 09:34:42;;;;;;;7.80;1.60;;;;;;;;;;4957114;28;20533;-88
2023/08/01 09:37:09;;;;;;;6.07;1.48;;;;;;;;;;4951570;28;20521;-89
2023/08/01 09:39:38;;;;;;;6.38;1.40;;;;;;;;;;4929663;28;20038;-87
2023/08/01 09:42:04;;;;;;;6.03;1.70;;;;;;;;;;4945045;28;20047;-88
2023/08/01 09:44:36;;;;;;;6.57;1.55;;;;;;;;;;4929717;28;20487;-86
2023/08/01 09:47:03;;;;;;;5.25;1.40;;;;;;;;;;4928085;28;20045;-87
2023/08/01 09:49:30;;;;;;;4.53;1.45;;;;;;;;;;4964839;28;20050;-84
2023/08/01 09:51:57;;;;;;;6.93;1.50;;;;;;;;;;4950098;28;20278;-85
2023/08/01 09:54:23;;;;;;;5.00;1.20;;;;;;;;;;4944609;28;21787;-86
2023/08/01 09:56:51;;;;;;;5.53;1.67;;;;;;;;;;4928028;28;20043;-84
2023/08/01 09:59:20;;;;;;;4.53;1.58;;;;;;;;;;4930094;28;20061;-85
2023/08/01 10:01:50;;;;;;;5.75;1.52;;;;;;;;;;4926707;28;20124;-84
2023/08/01 10:04:16;;;;;;;4.82;1.45;;;;;;;;;;4942898;28;20046;-86
2023/08/01 10:06:44;;;;;;;6.18;1.80;;;;;;;;;;4954868;28;20042;-84
2023/08/01 10:09:11;;;;;;;4.15;1.50;;;;;;;;;;4954751;28;20065;-85
2023/08/01 10:11:39;;;;;;;3.23;1.30;;;;;;;;;;4939638;28;20149;-85
2023/08/01 10:14:05;;;;;;;5.10;1.35;;;;;;;;;;4947321;28;20141;-84
2023/08/01 10:16:35;;;;;;;4.05;1.30;;;;;;;;;;4941408;28;20054;-86
2023/08/01 10:19:01;;;;;;;5.55;1.58;;;;;;;;;;4964289;28;20418;-85
2023/08/01 10:21:28;;;;;;;5.28;1.65;;;;;;;;;;4957498;28;20050;-85
2023/08/01 10:23:54;;;;;;;5.72;1.60;;;;;;;;;;4945002;28;20043;-85
2023/08/01 10:26:21;;;;;;;5.68;1.70;;;;;;;;;;4943039;28;20046;-84
2023/08/01 10:28:51;;;;;;;5.50;1.70;;;;;;;;;;4928267;28;20040;-87
2023/08/01 10:31:19;;;;;;;6.50;1.83;;;;;;;;;;4958669;28;20120;-87
2023/08/01 10:33:49;;;;;;;7.25;1.85;;;;;;;;;;4935401;28;20058;-86
2023/08/01 10:36:20;;;;;;;8.35;2.05;;;;;;;;;;4926632;28;20050;-87
2023/08/01 10:38:53;;;;;;;5.50;2.00;;;;;;;;;;4959047;28;20573;-86
2023/08/01 10:41:28;;;;;;;5.00;1.65;;;;;;;;;;4940042;28;20439;-86
2023/08/01 10:44:12;;;;;;;7.43;1.95;;;;;;;;;;4940845;28;20065;-85
2023/08/01 10:46:47;;;;;;;7.90;1.63;;;;;;;;;;4940300;28;20066;-86
2023/08/01 10:49:13;;;;;;;6.53;1.67;;;;;;;;;;4942237;28;20042;-86
2023/08/01 10:51:39;;;;;;;8.60;1.98;;;;;;;;;;4959233;28;20065;-87
2023/08/01 10:54:05;;;;;;;9.68;2.00;;;;;;;;;;4958683;28;20407;-87
2023/08/01 10:56:40;;;;;;;8.65;1.70;;;;;;;;;;4957149;28;20112;-88
2023/08/01 10:59:06;;;;;;;7.90;2.08;;;;;;;;;;4958348;28;20499;-86
2023/08/01 11:01:42;;;;;;;5.15;1.75;;;;;;;;;;4966261;28;20080;-85
2023/08/01 11:04:14;;;;;;;10.48;2.00;;;;;;;;;;4969303;28;20046;-86
2023/08/01 11:06:47;;;;;;;6.65;2.13;;;;;;;;;;4948610;28;20127;-87
2023/08/01 11:09:21;;;;;;;12.90;2.58;;;;;;;;;;4957413;28;20049;-87
2023/08/01 11:11:51;;;;;;;10.15;2.63;;;;;;;;;;4957140;28;20054;-86
2023/08/01 11:14:19;;;;;;;6.32;2.00;;;;;;;;;;4957287;28;20376;-86
2023/08/01 11:16:45;;;;;;;;;;;;;;;;;;4962804;28;20064;-87
2023/08/01 11:19:21;;;;;;;10.52;2.35;;;;;;;;;;4962841;28;19937;-86
2023/08/01 11:21:51;;;;;;;8.07;2.10;;;;;;;;;;4961665;28;20050;-86
2023/08/01 11:24:18;;;;;;;8.32;2.00;;;;;;;;;;4946225;28;20058;-88
2023/08/01 11:26:47;;;;;;;6.95;2.15;;;;;;;;;;4946110;28;20081;-85
2023/08/01 11:47:03;;;;;;;;;;;;;;;;;;;;;
2023/08/01 11:57:16;;;;;;;7.82;1.40;;;;;;;;;;4836522;29;20057;-87
2023/08/01 11:59:53;;;;;;;8.00;1.40;;;;;;;;;;4864089;29;20135;-85
2023/08/01 12:02:22;;;;;;;5.68;1.33;;;;;;;;;;4902914;29;20043;-85
2023/08/01 12:04:52;;;;;;;8.27;1.55;;;;;;;;;;4961191;28;20149;-86
2023/08/01 12:07:18;;;;;;;5.90;1.35;;;;;;;;;;4973486;28;20082;-86
2023/08/01 12:09:55;;;;;;;8.75;1.40;;;;;;;;;;4974495;28;20694;-84
2023/08/01 12:12:21;;;;;;;5.25;1.20;;;;;;;;;;4976853;28;20046;-86
2023/08/01 12:14:47;;;;;;;8.80;1.60;;;;;;;;;;4980419;28;20348;-86
2023/08/01 12:17:16;;;;;;;8.50;1.38;;;;;;;;;;4957311;28;20069;-87
2023/08/01 12:19:45;;;;;;;8.35;2.10;;;;;;;;;;4968200;28;20046;-86
2023/08/01 12:22:14;;;;;;;10.25;2.15;;;;;;;;;;4956960;28;20051;-87
2023/08/01 12:24:41;;;;;;;7.50;1.70;;;;;;;;;;4951132;28;20192;-86
2023/08/01 12:27:08;;;;;;;7.72;1.45;;;;;;;;;;4958325;28;20069;-87
2023/08/01 12:29:34;;;;;;;6.90;1.65;;;;;;;;;;4969358;28;20055;-86
2023/08/01 12:32:00;;;;;;;6.50;1.30;;;;;;;;;;4957986;28;20074;-87
2023/08/01 12:34:26;;;;;;;7.38;1.27;;;;;;;;;;4959605;28;20401;-86
2023/08/01 12:36:52;;;;;;;8.00;1.42;;;;;;;;;;4951821;28;20122;-86
2023/08/01 12:39:18;;;;;;;9.13;1.50;;;;;;;;;;4947786;28;20129;-86
2023/08/01 12:41:44;;;;;;;7.85;1.50;;;;;;;;;;4970266;28;20813;-86
2023/08/01 12:44:10;;;;;;;7.82;1.55;;;;;;;;;;4954796;28;20559;-86
2023/08/01 12:46:36;;;;;;;7.95;1.90;;;;;;;;;;4969879;28;20089;-86
2023/08/01 12:49:06;;;;;;;7.80;1.52;;;;;;;;;;4966148;28;20049;-86
2023/08/01 12:51:32;;;;;;;6.75;1.40;;;;;;;;;;4957203;28;20051;-85
2023/08/01 12:54:00;;;;;;;7.97;1.90;;;;;;;;;;4955245;28;20134;-87
2023/08/01 12:56:26;;;;;;;;;;;;;;;;;;4953162;28;20039;-85
2023/08/01 12:58:52;;;;;;;7.00;1.55;;;;;;;;;;4967578;28;19922;-84
2023/08/01 13:01:18;;;;;;;8.82;1.67;;;;;;;;;;4949521;28;20466;-85
2023/08/01 13:03:44;;;;;;;9.25;1.77;;;;;;;;;;4973040;28;20214;-85
2023/08/01 13:06:13;;;;;;;7.38;2.10;;;;;;;;;;4967532;28;20097;-85
2023/08/01 13:08:39;;;;;;;13.70;2.17;;;;;;;;;;4950378;28;20150;-85
2023/08/01 13:11:46;;;;;;;8.90;2.40;;;;;;;;;;4951370;28;20049;-84
2023/08/01 13:14:35;;;;;;;5.60;1.80;;;;;;;;;;4888019;29;20060;-85
2023/08/01 13:20:59;;;;;;;7.63;1.90;;;;;;;;;;4876931;29;20182;-84
2023/08/01 13:23:25;;;;;;;9.70;2.10;;;;;;;;;;4979674;28;20053;-84
2023/08/01 13:25:51;;;;;;;7.05;2.10;;;;;;;;;;4985027;28;20824;-85
2023/08/01 13:28:17;;;;;;;8.70;1.55;;;;;;;;;;4969964;28;20042;-85
2023/08/01 13:30:43;;;;;;;6.07;1.60;;;;;;;;;;4968252;28;20050;-85
2023/08/01 13:33:09;;;;;;;11.00;1.90;;;;;;;;;;4967552;28;20208;-85
2023/08/01 13:35:35;;;;;;;6.97;1.50;;;;;;;;;;4954133;28;20180;-85
2023/08/01 13:38:03;;;;;;;7.30;1.65;;;;;;;;;;4967788;28;20051;-83
2023/08/01 13:40:29;;;;;;;4.60;1.55;;;;;;;;;;4966977;28;20061;-84
2023/08/01 13:42:55;;;;;;;8.10;1.50;;;;;;;;;;4969360;28;20057;-84
2023/08/01 13:45:21;;;;;;;10.50;1.83;;;;;;;;;;4971048;28;20053;-84
2023/08/01 13:47:47;;;;;;;4.97;1.50;;;;;;;;;;4968541;28;20050;-84
2023/08/01 13:50:13;;;;;;;6.70;1.50;;;;;;;;;;4961102;28;21688;-85
2023/08/01 13:52:39;;;;;;;4.32;1.00;;;;;;;;;;4969985;28;20112;-85
2023/08/01 13:55:07;;;;;;;5.00;1.20;;;;;;;;;;4969646;28;20092;-85
2023/08/01 13:57:33;;;;;;;4.50;1.45;;;;;;;;;;4970572;28;20153;-85
2023/08/01 13:59:59;;;;;;;6.68;1.35;;;;;;;;;;4969263;28;20086;-85
2023/08/01 14:02:25;;;;;;;5.20;1.20;;;;;;;;;;4952625;28;20057;-86
2023/08/01 14:04:52;;;;;;;3.65;1.27;;;;;;;;;;4969697;28;20042;-85
2023/08/01 14:07:18;;;;;;;3.63;1.20;;;;;;;;;;4950788;28;20419;-86
2023/08/01 14:09:44;;;;;;;2.88;0.90;;;;;;;;;;4966778;28;20045;-85
2023/08/01 14:12:10;;;;;;;6.03;1.30;;;;;;;;;;4949844;28;20676;-86
2023/08/01 14:14:36;;;;;;;3.85;1.10;;;;;;;;;;4955278;28;20162;-86
2023/08/01 14:17:06;;;;;;;5.53;1.13;;;;;;;;;;4986984;28;20344;-84
2023/08/01 14:26:00;;;;;;;4.72;1.08;;;;;;;;;;4918315;29;20067;-86
2023/08/01 14:28:28;;;;;;;3.92;1.00;;;;;;;;;;4908799;29;20047;-86
2023/08/01 14:30:55;;;;;;;5.22;1.45;;;;;;;;;;4906105;29;20086;-85
2023/08/01 14:33:21;;;;;;;4.32;0.90;;;;;;;;;;4906949;29;20451;-85
2023/08/01 14:35:47;;;;;;;5.70;1.17;;;;;;;;;;4927786;28;21126;-85
2023/08/01 14:38:13;;;;;;;2.85;0.82;;;;;;;;;;4954698;28;20092;-85
2023/08/01 14:40:39;;;;;;;3.17;0.85;;;;;;;;;;4960928;28;20058;-85
2023/08/01 14:43:06;;;;;;;3.72;0.95;;;;;;;;;;4976159;28;20053;-85
2023/08/01 14:45:35;;;;;;;2.42;0.90;;;;;;;;;;4962506;28;20054;-85
2023/08/01 14:48:01;;;;;;;4.47;1.17;;;;;;;;;;4961687;28;20615;-86
2023/08/01 14:56:53;;;;;;;4.68;1.40;;;;;;;;;;4981246;28;20046;-86
2023/08/01 14:59:19;;;;;;;5.75;1.55;;;;;;;;;;4974607;28;20125;-85
2023/08/01 15:01:48;;;;;;;4.15;1.50;;;;;;;;;;4964606;28;20068;-85
2023/08/01 15:04:14;;;;;;;8.23;1.73;;;;;;;;;;4963414;28;20057;-86
2023/08/01 15:06:40;;;;;;;4.63;1.20;;;;;;;;;;4969909;28;20461;-85
2023/08/01 15:09:06;;;;;;;5.15;1.60;;;;;;;;;;4953665;28;20054;-85
2023/08/01 15:11:32;;;;;;;4.35;1.30;;;;;;;;;;4964504;28;20054;-86
2023/08/01 15:13:58;;;;;;;4.10;1.30;;;;;;;;;;4985137;28;20432;-85
2023/08/01 15:16:24;;;;;;;5.22;1.52;;;;;;;;;;4984836;28;20507;-85
2023/08/01 15:18:53;;;;;;;6.93;1.77;;;;;;;;;;4971973;28;20065;-85
2023/08/01 15:21:19;;;;;;;8.52;1.90;;;;;;;;;;4967488;28;20144;-85
2023/08/01 15:23:48;;;;;;;8.32;1.85;;;;;;;;;;4954891;28;20058;-85
2023/08/01 15:26:14;;;;;;;6.57;1.90;;;;;;;;;;4971835;28;20403;-86
2023/08/01 15:28:40;;;;;;;4.75;1.48;;;;;;;;;;4961486;28;20054;-84